createdAt,value
2023-04-30T00:04:31.914Z,99.90
2023-04-30T00:09:36.421Z,99.90
2023-04-30T00:14:39.523Z,99.90
2023-04-30T00:19:42.421Z,99.90
2023-04-30T00:24:46.899Z,99.90
2023-04-30T00:29:49.897Z,99.90
2023-04-30T00:34:52.936Z,99.90
2023-04-30T00:39:57.384Z,99.90
2023-04-30T00:45:00.529Z,99.90
2023-04-30T00:50:03.485Z,99.90
2023-04-30T00:55:08.994Z,99.90
2023-04-30T01:00:14.091Z,99.90
2023-04-30T01:05:17.696Z,99.90
2023-04-30T01:10:24.273Z,99.90
2023-04-30T01:15:32.916Z,99.90
2023-04-30T01:20:38.076Z,99.90
2023-04-30T01:25:55.831Z,99.90
2023-04-30T01:31:00.248Z,99.90
2023-04-30T01:36:16.570Z,99.90
2023-04-30T01:41:32.629Z,99.90
2023-04-30T01:46:37.131Z,99.90
2023-04-30T01:51:42.910Z,99.90
2023-04-30T01:56:52.184Z,99.90
2023-04-30T02:01:57.721Z,99.90
2023-04-30T02:07:01.155Z,99.90
2023-04-30T02:12:04.975Z,99.90
2023-04-30T02:17:09.262Z,99.90
2023-04-30T02:22:12.254Z,99.90
2023-04-30T02:27:15.234Z,99.90
2023-04-30T02:32:20.291Z,99.90
2023-04-30T02:37:23.278Z,99.90
2023-04-30T02:42:26.158Z,99.90
2023-04-30T02:47:30.395Z,99.90
2023-04-30T02:52:33.332Z,99.90
2023-04-30T02:57:36.317Z,99.90
2023-04-30T03:02:41.173Z,99.90
2023-04-30T03:07:44.141Z,99.90
2023-04-30T03:12:47.005Z,99.90
2023-04-30T03:17:51.784Z,99.90
2023-04-30T03:22:54.696Z,99.90
2023-04-30T03:27:57.604Z,99.90
2023-04-30T03:33:03.178Z,99.90
2023-04-30T03:38:06.175Z,99.90
2023-04-30T03:43:09.052Z,99.90
2023-04-30T03:48:13.412Z,99.90
2023-04-30T03:53:16.372Z,99.90
2023-04-30T03:58:19.346Z,99.90
2023-04-30T04:03:24.849Z,99.90
2023-04-30T04:08:27.717Z,99.90
2023-04-30T04:13:30.597Z,99.90
2023-04-30T04:18:34.870Z,99.90
2023-04-30T04:23:37.724Z,99.90
2023-04-30T04:28:41.085Z,99.90
2023-04-30T04:33:45.648Z,99.90
2023-04-30T04:38:49.010Z,99.90
2023-04-30T04:43:51.911Z,99.90
2023-04-30T04:48:56.219Z,99.90
2023-04-30T04:53:59.061Z,99.90
2023-04-30T04:59:02.462Z,99.90
2023-04-30T05:04:06.939Z,99.90
2023-04-30T05:09:09.921Z,99.90
2023-04-30T05:14:21.172Z,99.90
2023-04-30T05:19:25.365Z,99.90
2023-04-30T05:24:28.284Z,99.90
2023-04-30T05:29:31.970Z,99.90
2023-04-30T05:34:36.234Z,99.90
2023-04-30T05:39:39.096Z,99.90
2023-04-30T05:44:42.114Z,99.90
2023-04-30T05:49:46.366Z,99.90
2023-04-30T05:54:50.021Z,99.90
2023-04-30T05:59:53.874Z,99.90
2023-04-30T06:04:58.340Z,99.90
2023-04-30T06:10:01.225Z,99.90
2023-04-30T06:15:08.946Z,99.90
2023-04-30T06:20:14.737Z,99.90
2023-04-30T06:25:17.605Z,99.90
2023-04-30T06:30:20.975Z,99.90
2023-04-30T06:35:25.463Z,99.90
2023-04-30T06:40:28.333Z,99.90
2023-04-30T06:45:31.190Z,99.90
2023-04-30T06:50:35.367Z,99.90
2023-04-30T06:55:38.257Z,99.90
2023-04-30T07:00:41.251Z,99.90
2023-04-30T07:05:45.678Z,99.90
2023-04-30T07:10:48.574Z,99.90
2023-04-30T07:15:51.634Z,99.90
2023-04-30T07:20:56.287Z,99.90
2023-04-30T07:26:00.820Z,99.90
2023-04-30T07:31:04.515Z,99.90
2023-04-30T07:36:09.754Z,99.90
2023-04-30T07:41:12.729Z,99.90
2023-04-30T07:46:16.148Z,99.90
2023-04-30T07:51:21.240Z,99.90
2023-04-30T07:56:24.243Z,99.90
2023-04-30T08:01:27.087Z,99.90
2023-04-30T08:06:31.649Z,99.90
2023-04-30T08:11:34.710Z,99.90
2023-04-30T08:16:37.605Z,99.90
2023-04-30T08:21:41.915Z,99.90
2023-04-30T08:26:44.790Z,99.90
2023-04-30T08:31:47.750Z,99.90
2023-04-30T08:36:53.018Z,99.90
2023-04-30T08:41:57.760Z,99.90
2023-04-30T08:47:04.444Z,99.70
2023-04-30T08:52:09.550Z,99.30
2023-04-30T08:57:12.485Z,98.70
2023-04-30T09:02:15.535Z,99.00
2023-04-30T09:07:20.785Z,98.20
2023-04-30T09:12:23.659Z,97.90
2023-04-30T09:17:26.966Z,97.40
2023-04-30T09:22:31.237Z,96.80
2023-04-30T09:27:34.170Z,95.70
2023-04-30T09:32:37.080Z,95.30
2023-04-30T09:37:41.313Z,94.80
2023-04-30T09:42:59.364Z,95.10
2023-04-30T09:48:16.273Z,95.80
2023-04-30T09:53:23.674Z,95.10
2023-04-30T09:58:29.376Z,94.50
2023-04-30T10:03:33.438Z,94.00
2023-04-30T10:08:41.728Z,93.90
2023-04-30T10:13:50.460Z,93.30
2023-04-30T10:18:54.921Z,93.40
2023-04-30T10:23:59.359Z,93.30
2023-04-30T10:29:03.475Z,93.30
2023-04-30T10:34:16.373Z,93.30
2023-04-30T10:39:23.219Z,93.30
2023-04-30T10:44:27.451Z,92.90
2023-04-30T10:49:30.744Z,92.40
2023-04-30T10:54:37.023Z,92.50
2023-04-30T10:59:43.582Z,92.70
2023-04-30T11:05:12.432Z,92.70
2023-04-30T11:10:17.309Z,92.80
2023-04-30T11:15:22.742Z,92.10
2023-04-30T11:20:27.699Z,91.50
2023-04-30T11:25:41.005Z,91.50
2023-04-30T11:30:52.247Z,91.50
2023-04-30T11:35:56.184Z,92.10
2023-04-30T11:41:00.517Z,91.60
2023-04-30T11:46:06.111Z,91.80
2023-04-30T11:51:18.990Z,91.40
2023-04-30T11:56:24.402Z,91.00
2023-04-30T12:01:29.872Z,90.40
2023-04-30T12:06:32.879Z,89.10
2023-04-30T12:11:37.473Z,87.60
2023-04-30T12:16:42.282Z,86.30
2023-04-30T12:21:47.487Z,85.30
2023-04-30T12:26:54.705Z,83.90
2023-04-30T12:31:58.722Z,83.60
2023-04-30T12:37:03.369Z,84.20
2023-04-30T12:42:11.377Z,83.30
2023-04-30T12:47:14.582Z,82.60
2023-04-30T12:52:26.648Z,81.80
2023-04-30T12:57:30.890Z,81.00
2023-04-30T13:02:34.892Z,80.30
2023-04-30T13:07:39.569Z,79.50
2023-04-30T13:12:43.782Z,78.70
2023-04-30T13:17:47.108Z,79.00
2023-04-30T13:22:50.049Z,78.30
2023-04-30T13:27:54.421Z,78.20
2023-04-30T13:32:57.370Z,78.00
2023-04-30T13:38:00.959Z,78.10
2023-04-30T13:43:05.538Z,76.70
2023-04-30T13:48:08.609Z,76.60
2023-04-30T13:53:11.511Z,76.80
2023-04-30T13:58:16.292Z,76.20
2023-04-30T14:03:20.272Z,75.30
2023-04-30T14:08:23.532Z,75.30
2023-04-30T14:13:27.923Z,74.80
2023-04-30T14:18:30.976Z,74.50
2023-04-30T14:23:33.938Z,74.30
2023-04-30T14:28:38.297Z,74.10
2023-04-30T14:33:42.254Z,73.80
2023-04-30T14:38:45.263Z,73.50
2023-04-30T14:43:49.596Z,73.30
2023-04-30T14:48:52.599Z,71.60
2023-04-30T14:53:55.622Z,71.20
2023-04-30T14:58:59.863Z,70.80
2023-04-30T15:04:03.555Z,70.50
2023-04-30T15:09:06.488Z,70.40
2023-04-30T15:14:17.510Z,70.90
2023-04-30T15:19:20.483Z,70.80
2023-04-30T15:24:23.364Z,70.20
2023-04-30T15:29:27.581Z,69.80
2023-04-30T15:34:31.039Z,68.90
2023-04-30T15:39:35.203Z,67.80
2023-04-30T15:44:39.388Z,68.40
2023-04-30T15:49:43.559Z,68.40
2023-04-30T15:54:46.464Z,66.70
2023-04-30T15:59:50.686Z,67.40
2023-04-30T16:04:54.000Z,66.20
2023-04-30T16:09:57.221Z,66.00
2023-04-30T16:15:01.585Z,65.80
2023-04-30T16:20:05.101Z,65.70
2023-04-30T16:25:09.986Z,65.30
2023-04-30T16:30:14.644Z,65.20
2023-04-30T16:35:23.539Z,65.00
2023-04-30T16:40:26.693Z,64.50
2023-04-30T16:45:30.970Z,64.50
2023-04-30T16:50:34.114Z,64.40
2023-04-30T16:55:43.041Z,64.50
2023-04-30T17:00:47.349Z,64.50
2023-04-30T17:05:50.919Z,64.40
2023-04-30T17:10:53.789Z,65.00
2023-04-30T17:16:01.756Z,64.80
2023-04-30T17:21:05.310Z,64.60
2023-04-30T17:26:08.221Z,64.40
2023-04-30T17:31:13.509Z,64.20
2023-04-30T17:36:18.134Z,64.00
2023-04-30T17:41:21.099Z,64.00
2023-04-30T17:46:27.485Z,64.10
2023-04-30T17:51:31.548Z,64.50
2023-04-30T17:56:34.514Z,65.10
2023-04-30T18:01:38.781Z,64.60
2023-04-30T18:06:41.850Z,64.30
2023-04-30T18:11:44.812Z,64.10
2023-04-30T18:16:49.299Z,64.80
2023-04-30T18:21:53.143Z,65.90
2023-04-30T18:26:56.230Z,65.90
2023-04-30T18:32:00.863Z,65.80
2023-04-30T18:37:03.882Z,67.00
2023-04-30T18:42:06.760Z,67.90
2023-04-30T18:47:11.130Z,68.50
2023-04-30T18:52:14.166Z,68.00
2023-04-30T18:57:18.346Z,67.60
2023-04-30T19:02:24.740Z,67.90
2023-04-30T19:07:27.863Z,67.90
2023-04-30T19:12:30.953Z,68.00
2023-04-30T19:17:36.427Z,68.00
2023-04-30T19:22:40.530Z,68.10
2023-04-30T19:27:44.111Z,68.70
2023-04-30T19:32:48.454Z,69.30
2023-04-30T19:37:51.380Z,69.10
2023-04-30T19:42:54.972Z,69.70
2023-04-30T19:47:59.301Z,70.10
2023-04-30T19:53:12.801Z,71.60
2023-04-30T19:58:15.815Z,71.70
2023-04-30T20:03:20.889Z,71.80
2023-04-30T20:08:24.072Z,72.10
2023-04-30T20:13:27.220Z,73.10
2023-04-30T20:18:32.294Z,73.20
2023-04-30T20:23:35.485Z,73.50
2023-04-30T20:28:39.656Z,73.90
2023-04-30T20:33:45.959Z,74.40
2023-04-30T20:38:49.326Z,74.50
2023-04-30T20:43:52.888Z,75.10
2023-04-30T20:49:03.707Z,75.40
2023-04-30T20:54:08.615Z,75.90
2023-04-30T20:59:11.528Z,75.80
2023-04-30T21:04:15.727Z,75.70
2023-04-30T21:09:19.613Z,75.50
2023-04-30T21:14:22.477Z,75.50
2023-04-30T21:19:27.545Z,75.30
2023-04-30T21:24:31.627Z,75.00
2023-04-30T21:29:35.982Z,75.00
2023-04-30T21:34:40.206Z,75.10
2023-04-30T21:39:45.141Z,74.70
2023-04-30T21:44:48.533Z,74.30
2023-04-30T21:49:52.774Z,74.40
2023-04-30T21:54:55.761Z,74.00
2023-04-30T21:59:59.748Z,74.50
2023-04-30T22:05:04.379Z,75.60
2023-04-30T22:10:08.381Z,76.70
2023-04-30T22:15:12.152Z,77.50
2023-04-30T22:20:16.647Z,78.50
2023-04-30T22:25:20.291Z,78.40
2023-04-30T22:30:23.438Z,78.90
2023-04-30T22:35:28.608Z,79.70
2023-04-30T22:40:33.691Z,80.80
2023-04-30T22:45:38.338Z,81.20
2023-04-30T22:50:43.119Z,81.70
2023-04-30T22:55:46.112Z,82.70
2023-04-30T23:00:48.981Z,84.50
2023-04-30T23:05:53.251Z,87.50
2023-04-30T23:10:56.145Z,91.30
2023-04-30T23:15:59.625Z,92.40
2023-04-30T23:21:03.976Z,93.90
2023-04-30T23:26:06.928Z,94.60
2023-04-30T23:31:17.956Z,95.30
2023-04-30T23:36:22.284Z,95.10
2023-04-30T23:41:25.960Z,95.60
2023-04-30T23:46:28.870Z,96.10
2023-04-30T23:51:34.298Z,96.60
2023-04-30T23:56:37.428Z,96.60
